Información del aeropuerto SCRM

Información de pista
Pista 11 Longitud 4238 ft Anchura 125 ft
Elevación 142 ft Umbral 0 ft Rumbo 122
Pista 29 Longitud 4238 ft Anchura 125 ft
Elevación 127 ft Umbral 0 ft Rumbo 302
Frecuencias del aeropuerto
Tipo APP Nombre MARSH APP Frecuencia 118.1 MHZ
Tipo TWR Nombre TWR Frecuencia 118.1 MHZ
Radioayudas del aeropuerto
Tipo VOR-DME Nombre Isla Rey Jorge Frecuencia 113300 KHZ
Tipo NDB Nombre Isla Rey Jorge Frecuencia 360 KHZ
Información meteorológica del aeropuerto y NOTAM
ADDS - METARS form results

(0324 UTC 05 March 2021)
Data provider http://aviationweather.gov/metar/data/
 
METAR text: SCRM 050300Z 30013KT 9999 SCT015 01/01 Q0997 NOSIG
Conditions at: SCRM (TENIENTE R MARSH, CL) observed 0300 UTC 05 March 2021
Temperature: 1.0°C (34°F)
Dewpoint: 1.0°C (34°F) [RH = 100%]
Pressure (altimeter): 29.44 inches Hg (997.0 mb)
Winds: from the WNW (300 degrees) at 15 MPH (13 knots; 6.7 m/s)
Visibility: 6 or more miles (10+ km)
Ceiling: at least 12,000 feet AGL
Clouds: scattered clouds at 1500 feet AGL
Weather: no significant weather observed at this time